ilmateenistus.ee keskkonnaagentuur.ee
EETN Tallinna lennuväli
FTEO31 EETN 240500
TAF EETN 240530Z 2406/2506 31018G28KT 9999 SCT030 TEMPO 2407/2416
    33020G34KT BECMG 2418/2420 29008KT=

METAR EETN 241020Z 29020G30KT 9999 FEW034 03/M04 Q0996 R08/12//95 NOSIG=
Tallinna lennuväli
EEKA Kärdla lennuväli
FCEO32 EETN 240400 AAA
TAF AMD EEKA 240800Z 2405/2411 CNL=

METAR EEKA 240950Z NIL=
Kärdla lennuväli
EEKE Kuressaare lennuväli
FCEO32 EETN 240600 AAA
TAF AMD EEKE 241000Z 2407/2413 CNL=

METAR EEKE 240950Z 31014KT 280V340 9999 FEW037 04/M03 Q1001 R17/0///95=
Kuressaare lennuväli
EEPU Pärnu lennuväli
METAR EEPU 240950Z 29016KT 260V320 9999 BKN039 04/M03 Q0998=
Pärnu lennuväli
EETU Tartu lennuväli
METAR EETU 241020Z 28016KT 260V320 9999 SCT036 03/M04 Q0996=
Tartu lennuväli
EEEI Ämari lennuväli
SPECI EEEI 241004Z 28019G30KT 250V310 9999 BKN031 03/M04 Q0997 R24/090095=
Ämari lennuväli